Station NLXA2 - Nelson Lagoon, AK Image indicating link to RSS feed of recent meteorological observations for station NLXA2


Conditions at NLXA2 as of
(9:24 am AKDT)
1724 GMT on 05/26/2024:
     

Click on the graph icon in the table below to see a time series plot of the last five days of that observation.

5-day plot - Wind Direction Wind Direction (WDIR):WNW ( 300 deg true )
5-day plot - Wind Speed Wind Speed (WSPD): 17.1 kts
5-day plot - Wind Gust Wind Gust (GST): 25.1 kts
5-day plot - Air Temperature Air Temperature (ATMP): 34.9 °F
5-day plot - Dew Point Dew Point (DEWP): 33.6 °F
5-day plot - Wind Chill Wind Chill (CHILL): 23.9 °F
5-day plot - Wind Speed at 10 Meters Wind Speed at 10 meters (WSPD10M): 15.5 kts
5-day plot - Wind Speed at 20 Meters Wind Speed at 20 meters (WSPD20M): 17.5 kts
5-day plot -  Wind Speed, Wind Gust and Atmospheric Pressure Combined plot of Wind Speed, Gust, and Air Pressure
Previous observations
TIME
(AKDT)
5-day plot - Wind Direction
WDIR
 
5-day plot - Wind Speed
WSPD
kts
5-day plot - Wind Gust
GST
kts
5-day plot - Wave Height
WVHT
ft
5-day plot - Dominant Wave Period
DPD
sec
5-day plot - Average Wave Period
APD
sec
5-day plot - Mean Wave Direction
MWD
 
5-day plot - Atmospheric Pressure
PRES
in
5-day plot - Pressure Tendency
PTDY
in
5-day plot - Air Temperature
ATMP
°F
5-day plot - Water Temperature
WTMP
°F
5-day plot - Dew Point
DEWP
°F
5-day plot - Salinity
SAL
psu
5-day plot - Visibility
VIS
nmi
5-day plot - Tide (above MLLW)
TIDE
ft
2024-05-26 09:14 amWNW 18.1 27.0------ 34.7- 33.6---
2024-05-26 09:04 amWNW 17.1 26.0------ 34.7- 33.6---
2024-05-26 08:54 am NW 17.1 27.0------ 34.7- 33.6---
2024-05-26 08:45 amWNW 17.1 27.0------ 34.7- 33.6---
2024-05-26 08:35 am NW 15.9 22.9------ 34.7- 33.6---
2024-05-26 08:25 amWNW 18.1 27.0------ 34.7- 33.6---
2024-05-26 08:14 amWNW 15.9 26.0------ 34.7- 33.6---
2024-05-26 08:05 amWNW 17.1 25.1------ 34.7- 33.6---
2024-05-26 07:54 amWNW 17.1 26.0------ 34.7- 33.6---
2024-05-26 07:44 am NW 17.1 26.0------ 34.9- 33.8---
2024-05-26 07:34 am NW 15.9 22.9------ 35.1- 34.0---
2024-05-26 07:24 am NW 15.9 22.0------ 34.9- 33.8---
2024-05-26 07:14 am NW 15.9 24.1------ 34.9- 33.8---
2024-05-26 07:04 am NW 15.9 22.9------ 35.2- 34.2---
2024-05-26 06:54 am NW 15.0 22.9------ 35.4- 34.3---
2024-05-26 06:44 am NW 15.9 22.0------ 35.6- 34.3---
2024-05-26 06:34 am NW 15.9 26.0------ 36.0- 34.5---
2024-05-26 06:25 am NW 17.1 26.0------ 36.0- 34.3---
2024-05-26 06:14 am NW 17.1 25.1------ 36.3- 34.7---
2024-05-26 06:05 am NW 18.1 28.9------ 36.5- 34.9---
2024-05-26 05:54 am NW 15.9 25.1------ 36.7- 34.9---
2024-05-26 05:44 am NW 17.1 24.1------ 36.9- 34.9---
2024-05-26 05:35 am NW 17.1 26.0------ 36.9- 35.1---
2024-05-26 05:24 am NW 15.9 24.1------ 36.9- 35.1---
2024-05-26 05:14 am NW 15.0 24.1------ 37.0- 35.1---
2024-05-26 05:05 am NW 15.0 24.1------ 36.9- 35.1---
2024-05-26 04:54 am NW 15.0 24.1------ 36.9- 35.1---
2024-05-26 04:44 am NW 15.9 24.1------ 36.9- 35.1---
2024-05-26 04:34 am NW 15.9 24.1------ 36.9- 35.2---
2024-05-26 04:24 am NW 15.0 22.9------ 36.7- 35.4---
2024-05-26 04:14 am NW 15.0 24.1------ 36.7- 35.4---
2024-05-26 04:04 am NW 15.0 25.1------ 36.5- 35.4---
2024-05-26 03:54 am NW 15.9 25.1------ 36.7- 35.6---
2024-05-26 03:44 am NW 17.1 25.1------ 36.5- 35.8---
2024-05-26 03:34 am NW 18.1 27.0------ 36.5- 35.8---
2024-05-26 03:24 am NW 17.1 26.0------ 36.5- 35.8---
2024-05-26 03:14 am NW 18.1 26.0------ 36.5- 35.8---
2024-05-26 03:04 am NW 17.1 26.0------ 36.5- 35.8---
2024-05-26 02:54 am NW 17.1 26.0------ 36.3- 35.6---
2024-05-26 02:44 am NW 18.1 26.0------ 36.5- 35.8---
2024-05-26 02:34 am NW 15.0 25.1------ 36.7- 36.0---
2024-05-26 02:24 am NW 15.9 24.1------ 36.7- 36.0---
2024-05-26 02:14 am NW 15.0 24.1------ 36.7- 36.0---
2024-05-26 02:04 am NW 14.0 22.0------ 36.9- 36.1---
2024-05-26 01:54 am NW 14.0 22.0------ 36.9- 36.1---
2024-05-26 01:44 am NW 14.0 22.0------ 36.9- 36.1---
2024-05-26 01:34 am NW 14.0 22.0------ 36.9- 36.1---
2024-05-26 01:24 amNNW 14.0 22.0------ 37.0- 36.3---
2024-05-26 01:04 amNNW 12.0 21.0------ 37.0- 36.3---
2024-05-26 12:54 amNNW 13.0 20.0------ 36.9- 36.1---
2024-05-26 12:44 amNNW 13.0 21.0------ 36.9- 36.1---
2024-05-26 12:34 am N 13.0 22.0------ 36.7- 36.0---
2024-05-26 12:24 amNNW 14.0 22.0------ 36.5- 35.6---
2024-05-26 12:15 am N 13.0 24.1------ 36.1- 35.1---
2024-05-26 12:04 amNNW 13.0 20.0------ 36.9- 35.8---
2024-05-25 11:54 pm N 13.0 20.0------ 37.4- 36.3---
2024-05-25 11:44 pm N 13.0 19.0------ 37.2- 36.0---
2024-05-25 11:34 pm N 14.0 20.0------ 37.0- 35.8---
2024-05-25 11:24 pm N 14.0 21.0------ 37.2- 36.0---
2024-05-25 11:14 pm N 14.0 22.0------ 37.6- 36.3---
2024-05-25 11:04 pmNNW 14.0 22.0------ 37.4- 36.1---
2024-05-25 10:54 pmNNW 15.0 22.0------ 37.4- 36.1---
2024-05-25 10:44 pmNNW 15.0 22.9------ 37.4- 36.1---
2024-05-25 10:34 pmNNW 14.0 22.0------ 37.4- 36.1---
2024-05-25 10:24 pmNNW 13.0 22.9------ 37.4- 36.1---
2024-05-25 10:14 pmNNW 12.0 22.0------ 37.4- 36.1---
2024-05-25 10:04 pm NW 13.0 20.0------ 37.4- 36.1---
2024-05-25 09:54 pm NW 14.0 22.9------ 37.4- 36.1---
2024-05-25 09:44 pm NW 14.0 21.0------ 37.4- 36.1---
2024-05-25 09:34 pm NW 13.0 20.0------ 37.4- 36.0---
2024-05-25 09:24 pm NW 15.0 22.0------ 37.2- 35.8---
2024-05-25 09:14 pm NW 14.0 22.9------ 37.2- 36.0---
2024-05-25 09:04 pm NW 15.0 22.0------ 37.0- 35.6---
2024-05-25 08:55 pm NW 15.9 24.1------ 37.0- 35.1---
2024-05-25 08:44 pm NW 15.9 22.9------ 36.9- 35.1---
2024-05-25 08:35 pm NW 15.9 22.9------ 37.0- 35.2---
2024-05-25 08:25 pm NW 15.9 25.1------ 37.4- 35.6---
2024-05-25 08:14 pm NW 15.9 27.0------ 37.6- 35.8---
2024-05-25 08:04 pm NW 17.1 25.1------ 37.8- 36.1---
2024-05-25 07:54 pmWNW 17.1 25.1------ 37.9- 36.1---
2024-05-25 07:44 pmWNW 15.9 25.1------ 38.3- 36.3---
2024-05-25 07:34 pmWNW 17.1 26.0------ 38.5- 36.3---
2024-05-25 07:24 pmWNW 17.1 25.1------ 38.7- 36.1---
2024-05-25 07:14 pmWNW 15.9 25.1------ 38.7- 36.3---
2024-05-25 07:04 pmWNW 18.1 26.0------ 38.5- 36.1---
2024-05-25 06:54 pm NW 18.1 27.0------ 38.5- 36.1---
2024-05-25 06:44 pm NW 18.1 27.0------ 38.8- 36.3---
2024-05-25 06:34 pm NW 15.9 25.1------ 39.0- 36.7---
2024-05-25 06:24 pm NW 17.1 24.1------ 38.8- 36.5---
2024-05-25 06:14 pm NW 18.1 25.1------ 39.0- 36.5---
2024-05-25 06:05 pm NW 17.1 26.0------ 39.2- 36.7---
2024-05-25 05:55 pm NW 18.1 26.0------ 39.0- 36.7---
2024-05-25 05:44 pm NW 18.1 26.0------ 39.0- 36.7---
2024-05-25 05:35 pm NW 18.1 27.0------ 39.2- 36.5---
2024-05-25 05:25 pm NW 18.1 27.0------ 39.2- 36.5---
2024-05-25 05:14 pm NW 18.1 26.0------ 39.4- 36.7---
2024-05-25 05:04 pm NW 19.0 29.9------ 39.2- 36.5---
2024-05-25 04:54 pm NW 18.1 26.0------ 39.4- 36.9---
2024-05-25 04:44 pm NW 18.1 26.0------ 39.2- 36.9---
2024-05-25 04:34 pm NW 17.1 26.0------ 39.0- 36.9---
2024-05-25 04:24 pmWNW 17.1 25.1------ 39.0- 36.9---
2024-05-25 04:14 pm NW 18.1 25.1------ 38.8- 36.7---
2024-05-25 03:54 pm NW 18.1 26.0------ 39.0- 36.7---
2024-05-25 03:44 pm NW 18.1 26.0------ 39.0- 36.7---
2024-05-25 03:34 pm NW 18.1 26.0------ 39.0- 36.7---
2024-05-25 03:24 pm NW 18.1 27.0------ 39.6- 36.7---
2024-05-25 03:14 pm NW 18.1 26.0------ 39.7- 36.9---
2024-05-25 03:04 pm NW 17.1 26.0------ 39.6- 36.7---
2024-05-25 02:54 pm NW 17.1 26.0------ 39.4- 36.7---
2024-05-25 02:44 pm NW 17.1 24.1------ 39.4- 36.5---
2024-05-25 02:34 pm NW 18.1 25.1------ 39.7- 36.9---
2024-05-25 02:24 pm NW 18.1 26.0------ 39.6- 36.7---
2024-05-25 02:14 pm NW 17.1 25.1------ 39.6- 36.5---
2024-05-25 02:04 pm NW 15.0 25.1------ 39.7- 36.7---
2024-05-25 01:54 pm NW 17.1 22.9------ 39.6- 36.3---
2024-05-25 01:44 pm NW 15.9 24.1------ 39.7- 36.3---
2024-05-25 01:34 pm NW 18.1 28.0------ 39.6- 36.1---
2024-05-25 01:24 pm NW 17.1 26.0------ 39.4- 36.1---
2024-05-25 01:14 pm NW 18.1 26.0------ 39.0- 36.0---
2024-05-25 01:04 pm NW 18.1 27.0------ 39.2- 36.0---
2024-05-25 12:54 pm NW 17.1 26.0------ 39.0- 35.8---
2024-05-25 12:44 pm NW 18.1 26.0------ 38.8- 35.6---
2024-05-25 12:34 pm NW 18.1 26.0------ 38.8- 35.6---
2024-05-25 12:14 pm NW 19.0 28.0------ 38.5- 35.4---
2024-05-25 12:05 pm NW 18.1 27.0------ 38.8- 35.8---
2024-05-25 11:54 am NW 19.0 29.9------ 38.7- 35.6---
2024-05-25 11:44 am NW 19.0 27.0------ 38.7- 35.6---
2024-05-25 11:34 am NW 19.0 27.0------ 38.5- 35.2---
2024-05-25 11:24 am NW 18.1 28.9------ 38.5- 35.2---
2024-05-25 11:14 am NW 20.0 28.0------ 38.3- 35.1---
2024-05-25 11:04 am NW 20.0 28.0------ 38.3- 35.4---
2024-05-25 10:54 am NW 19.0 28.9------ 38.5- 35.4---
2024-05-25 10:44 am NW 19.0 29.9------ 38.5- 35.4---
2024-05-25 10:34 am NW 19.0 27.0------ 38.7- 35.6---
2024-05-25 10:24 am NW 19.0 28.0------ 38.7- 35.6---
2024-05-25 10:14 am NW 20.0 28.9------ 38.5- 35.4---
2024-05-25 10:04 am NW 19.0 28.0------ 38.5- 35.6---
2024-05-25 09:54 amWNW 20.0 31.1------ 38.3- 35.4---
2024-05-25 09:44 amWNW 19.0 31.1------ 38.3- 35.4---
2024-05-25 09:34 amWNW 20.0 31.1------ 38.1- 35.4---
2024-05-25 09:24 amWNW 19.0 28.0------ 38.1- 35.4---
2024-05-25 09:14 am NW 20.0 29.9------ 37.9- 35.2---
2024-05-25 09:04 am NW 20.0 28.9------ 37.9- 35.2---
2024-05-25 08:54 am NW 21.0 32.1------ 37.9- 35.2---